Time;durP1;ratioP1;P1;durP2;ratioP2;P2;SDS_P1;SDS_P2;PMS_P1;PMS_P2;Temp;Humidity;BMP_temperature;BMP_pressure;BME280_temperature;BME280_humidity;BME280_pressure;Samples;Min_cycle;Max_cycle;Signal;HPM_P1;HPM_P2
2022/01/09 00:00:16;;;;;;;10.45;6.82;;;0.10;99.90;;;;;;5047197;28;20201;-62
2022/01/09 00:02:42;;;;;;;9.90;6.25;;;0.10;99.90;;;;;;5048991;28;20198;-64
2022/01/09 00:05:08;;;;;;;9.90;6.53;;;0.10;99.90;;;;;;5043335;28;20184;-61
2022/01/09 00:07:34;;;;;;;10.02;6.45;;;0.00;99.90;;;;;;5032901;28;20183;-62
2022/01/09 00:10:00;;;;;;;9.30;6.13;;;0.00;99.90;;;;;;5029389;28;20194;-61
2022/01/09 00:12:26;;;;;;;9.60;6.10;;;0.00;99.90;;;;;;5022824;28;20323;-61
2022/01/09 00:14:52;;;;;;;9.93;6.27;;;0.00;99.90;;;;;;5045417;28;20185;-60
2022/01/09 00:17:18;;;;;;;9.07;6.15;;;0.00;99.90;;;;;;5031006;28;20448;-61
2022/01/09 00:19:45;;;;;;;8.60;6.40;;;0.00;99.90;;;;;;5039260;28;20199;-61
2022/01/09 00:22:11;;;;;;;10.70;6.28;;;0.10;99.90;;;;;;5045059;28;20628;-58
2022/01/09 00:24:37;;;;;;;7.20;5.90;;;0.10;99.90;;;;;;5025968;28;20540;-61
2022/01/09 00:27:03;;;;;;;8.63;5.27;;;0.10;99.90;;;;;;5041172;28;20186;-60
2022/01/09 00:29:28;;;;;;;9.00;5.70;;;0.10;99.90;;;;;;5028454;28;20189;-61
2022/01/09 00:31:54;;;;;;;10.47;6.17;;;0.20;99.90;;;;;;5048143;28;20182;-61
2022/01/09 00:34:19;;;;;;;10.27;6.50;;;0.20;99.90;;;;;;5045925;28;20190;-61
2022/01/09 00:36:45;;;;;;;6.87;6.10;;;0.10;99.90;;;;;;5047296;28;20907;-61
2022/01/09 00:39:10;;;;;;;8.63;5.77;;;0.10;99.90;;;;;;5033879;28;20187;-62
2022/01/09 00:41:36;;;;;;;8.07;5.20;;;0.10;99.90;;;;;;5029229;28;20202;-62
2022/01/09 00:44:02;;;;;;;8.80;5.87;;;0.20;99.90;;;;;;5027623;28;20966;-61
2022/01/09 00:46:27;;;;;;;9.00;6.33;;;0.10;99.90;;;;;;5028924;28;20179;-61
2022/01/09 00:48:53;;;;;;;11.90;6.87;;;0.20;99.90;;;;;;5025414;28;20176;-60
2022/01/09 00:51:19;;;;;;;11.43;7.53;;;0.10;99.90;;;;;;5029272;28;20186;-62
2022/01/09 00:53:44;;;;;;;9.73;7.40;;;0.10;99.90;;;;;;5026595;28;20186;-60
2022/01/09 00:56:10;;;;;;;11.77;6.87;;;0.10;99.90;;;;;;5028897;28;20176;-61
2022/01/09 00:58:35;;;;;;;10.20;6.70;;;0.10;99.90;;;;;;5028075;28;20214;-61
2022/01/09 01:01:02;;;;;;;10.10;6.53;;;0.10;99.90;;;;;;5028972;28;20214;-61
2022/01/09 01:03:28;;;;;;;9.82;6.72;;;0.10;99.90;;;;;;5027900;28;20199;-61
2022/01/09 01:05:53;;;;;;;9.13;6.63;;;0.10;99.90;;;;;;5030858;28;20501;-61
2022/01/09 01:08:19;;;;;;;9.70;6.30;;;0.10;99.90;;;;;;5029255;28;20262;-62
2022/01/09 01:10:45;;;;;;;8.63;5.47;;;0.10;99.90;;;;;;5039523;28;20258;-61
2022/01/09 01:13:10;;;;;;;13.90;6.57;;;0.10;99.90;;;;;;5031107;28;20429;-61
2022/01/09 01:15:36;;;;;;;13.37;7.47;;;0.10;99.90;;;;;;5044124;28;20198;-61
2022/01/09 01:18:02;;;;;;;10.30;6.93;;;0.10;99.90;;;;;;5030459;28;20302;-55
2022/01/09 01:20:31;;;;;;;11.13;6.18;;;0.10;99.90;;;;;;5041039;28;20205;-61
2022/01/09 01:22:58;;;;;;;7.10;5.80;;;0.10;99.90;;;;;;5039628;28;20203;-61
2022/01/09 01:25:24;;;;;;;9.75;6.07;;;0.20;99.90;;;;;;5044571;28;20174;-63
2022/01/09 01:27:51;;;;;;;10.43;7.50;;;0.10;99.90;;;;;;5017274;28;20207;-63
2022/01/09 01:30:16;;;;;;;10.35;5.80;;;0.20;99.90;;;;;;5042676;28;20203;-64
2022/01/09 01:32:43;;;;;;;10.90;7.23;;;0.20;99.90;;;;;;5048056;28;20391;-64
2022/01/09 01:35:09;;;;;;;11.98;5.90;;;0.20;99.90;;;;;;5042449;28;20277;-63
2022/01/09 01:37:38;;;;;;;7.25;6.03;;;0.20;99.90;;;;;;5033178;28;20179;-64
2022/01/09 01:40:06;;;;;;;9.63;5.68;;;0.20;99.90;;;;;;5038746;28;20184;-64
2022/01/09 01:42:32;;;;;;;6.82;5.90;;;0.20;99.90;;;;;;5049266;28;20209;-64
2022/01/09 01:44:57;;;;;;;9.00;5.57;;;0.20;99.90;;;;;;5029759;28;20183;-63
2022/01/09 01:47:23;;;;;;;8.03;5.17;;;0.20;99.90;;;;;;5030643;28;20203;-63
2022/01/09 01:49:50;;;;;;;10.77;6.10;;;0.10;99.90;;;;;;5047963;28;20226;-64
2022/01/09 01:52:18;;;;;;;6.82;4.75;;;0.20;99.90;;;;;;5039440;28;20241;-63
2022/01/09 01:54:44;;;;;;;8.05;5.25;;;0.20;99.90;;;;;;5046562;28;20175;-63
2022/01/09 01:57:10;;;;;;;12.57;5.70;;;0.20;99.90;;;;;;5042576;28;20194;-63
2022/01/09 01:59:36;;;;;;;7.13;4.60;;;0.20;99.90;;;;;;5043089;28;20255;-64
2022/01/09 02:02:02;;;;;;;6.90;5.17;;;0.20;99.90;;;;;;5049999;28;20198;-63
2022/01/09 02:04:28;;;;;;;4.78;4.13;;;0.20;99.90;;;;;;5045741;28;20637;-66
2022/01/09 02:06:56;;;;;;;7.00;4.67;;;0.20;99.90;;;;;;5029342;28;20191;-64
2022/01/09 02:09:22;;;;;;;9.55;6.20;;;0.30;99.90;;;;;;5035216;28;20198;-63
2022/01/09 02:11:48;;;;;;;5.95;4.53;;;0.30;99.90;;;;;;5031241;28;20183;-63
2022/01/09 02:14:13;;;;;;;7.20;5.47;;;0.30;99.90;;;;;;5028952;28;20512;-64
2022/01/09 02:16:41;;;;;;;6.17;5.00;;;0.40;99.90;;;;;;5035433;28;20179;-65
2022/01/09 02:19:08;;;;;;;5.93;4.20;;;0.40;99.90;;;;;;5028454;28;20541;-64
2022/01/09 02:21:34;;;;;;;6.75;5.07;;;0.40;99.90;;;;;;5031644;28;20202;-64
2022/01/09 02:23:59;;;;;;;5.70;4.23;;;0.50;99.90;;;;;;5033396;28;20214;-64
2022/01/09 02:26:25;;;;;;;6.70;4.60;;;0.50;99.90;;;;;;5042218;28;20185;-64
2022/01/09 02:28:51;;;;;;;6.63;4.47;;;0.50;99.90;;;;;;5031439;28;20194;-64
2022/01/09 02:31:17;;;;;;;7.50;4.60;;;0.50;99.90;;;;;;5042706;28;20650;-64
2022/01/09 02:33:43;;;;;;;5.33;4.47;;;0.60;99.90;;;;;;5029987;28;20438;-64
2022/01/09 02:36:09;;;;;;;7.38;5.10;;;0.60;99.90;;;;;;5027900;28;20179;-64
2022/01/09 02:38:35;;;;;;;7.55;4.60;;;0.60;99.90;;;;;;5028437;28;20213;-64
2022/01/09 02:41:01;;;;;;;7.90;4.53;;;0.60;99.90;;;;;;5029288;28;20182;-64
2022/01/09 02:43:27;;;;;;;5.77;4.30;;;0.60;99.90;;;;;;5040710;28;20210;-61
2022/01/09 02:48:45;;;;;;;9.02;4.88;;;0.50;99.90;;;;;;5024974;28;20943;-63
2022/01/09 02:51:14;;;;;;;7.25;5.55;;;0.50;99.90;;;;;;5050178;28;20218;-64
2022/01/09 02:53:44;;;;;;;9.90;5.40;;;0.50;99.90;;;;;;5034132;28;20179;-64
2022/01/09 02:56:10;;;;;;;5.72;4.63;;;0.60;99.90;;;;;;5041680;28;20215;-61
2022/01/09 02:58:37;;;;;;;7.23;5.40;;;0.50;99.90;;;;;;5026951;28;20643;-61
2022/01/09 03:01:04;;;;;;;6.97;5.10;;;0.60;99.90;;;;;;5034013;28;20174;-64
2022/01/09 03:03:30;;;;;;;5.75;4.75;;;0.60;99.90;;;;;;5036915;28;20566;-64
2022/01/09 03:05:55;;;;;;;6.60;4.80;;;0.60;99.90;;;;;;5043555;28;20198;-64
2022/01/09 03:08:21;;;;;;;8.93;5.10;;;0.60;99.90;;;;;;5026922;28;20236;-64
2022/01/09 03:10:47;;;;;;;7.23;5.00;;;0.50;99.90;;;;;;5028068;28;20554;-64
2022/01/09 03:13:12;;;;;;;7.60;5.80;;;0.50;99.90;;;;;;5046029;28;20220;-64
2022/01/09 03:15:38;;;;;;;5.67;5.07;;;0.50;99.90;;;;;;5038192;28;20206;-64
2022/01/09 03:18:03;;;;;;;8.00;5.20;;;0.50;99.90;;;;;;5028014;28;20302;-64
2022/01/09 03:20:29;;;;;;;8.13;5.27;;;0.60;99.90;;;;;;5040544;28;20190;-65
2022/01/09 03:22:56;;;;;;;8.40;5.18;;;0.70;99.90;;;;;;5031473;28;20207;-64
2022/01/09 03:25:23;;;;;;;5.47;4.40;;;0.70;99.90;;;;;;5037876;28;20182;-64
2022/01/09 03:27:49;;;;;;;5.68;4.25;;;0.70;99.90;;;;;;5046905;28;20214;-56
2022/01/09 03:30:17;;;;;;;6.45;5.32;;;0.70;99.90;;;;;;5038377;28;20174;-65
2022/01/09 03:32:43;;;;;;;6.57;5.20;;;0.70;99.90;;;;;;5032548;28;20301;-65
2022/01/09 03:35:11;;;;;;;6.70;5.50;;;0.70;99.90;;;;;;5036624;28;20273;-66
2022/01/09 03:37:38;;;;;;;8.23;5.20;;;0.70;99.90;;;;;;5032771;28;20194;-65
2022/01/09 03:40:06;;;;;;;7.75;4.80;;;0.80;99.90;;;;;;5034400;28;20505;-64
2022/01/09 03:42:32;;;;;;;7.25;4.97;;;0.80;99.90;;;;;;5049520;28;20253;-65
2022/01/09 03:44:57;;;;;;;8.00;5.07;;;0.80;99.90;;;;;;5029827;28;20237;-65
2022/01/09 03:47:23;;;;;;;6.07;4.53;;;0.80;99.90;;;;;;5029049;28;20194;-65
2022/01/09 03:49:50;;;;;;;7.70;5.23;;;0.90;99.90;;;;;;5028618;28;20313;-62
2022/01/09 03:52:16;;;;;;;6.85;5.20;;;0.90;99.90;;;;;;5029331;28;20922;-65
2022/01/09 03:54:42;;;;;;;6.27;4.33;;;0.90;99.90;;;;;;5027702;28;20178;-65
2022/01/09 03:57:07;;;;;;;5.90;4.90;;;0.90;99.90;;;;;;5029831;28;20432;-65
2022/01/09 03:59:33;;;;;;;7.37;4.13;;;1.00;99.90;;;;;;5027873;28;20306;-67
2022/01/09 04:01:58;;;;;;;7.90;4.37;;;1.00;99.90;;;;;;5029739;28;20218;-64
2022/01/09 04:04:24;;;;;;;6.53;4.03;;;1.00;99.90;;;;;;5026513;28;20318;-64
2022/01/09 04:06:50;;;;;;;5.90;4.10;;;1.00;99.90;;;;;;5027571;28;20183;-65
2022/01/09 04:09:27;;;;;;;7.18;4.95;;;1.00;99.90;;;;;;5027752;28;20190;-65
2022/01/09 04:12:01;;;;;;;5.97;4.60;;;1.00;99.90;;;;;;5029485;28;20516;-65
2022/01/09 04:14:26;;;;;;;5.47;4.07;;;1.00;99.90;;;;;;5028788;28;20615;-65
2022/01/09 04:16:52;;;;;;;6.70;4.57;;;0.90;99.90;;;;;;5027990;28;20182;-64
2022/01/09 04:19:17;;;;;;;6.03;4.47;;;0.90;99.90;;;;;;5027488;28;20195;-65
2022/01/09 04:21:43;;;;;;;7.20;4.57;;;0.90;99.90;;;;;;5028450;28;20583;-64
2022/01/09 04:24:09;;;;;;;4.73;3.87;;;0.90;99.90;;;;;;5027420;28;20182;-64
2022/01/09 04:26:36;;;;;;;4.53;3.95;;;0.90;99.90;;;;;;5029209;28;20167;-64
2022/01/09 04:29:02;;;;;;;5.53;4.47;;;0.70;99.90;;;;;;5028457;28;20175;-64
2022/01/09 04:31:28;;;;;;;6.95;5.30;;;0.70;99.90;;;;;;5029063;28;20172;-65
2022/01/09 04:33:54;;;;;;;5.33;4.13;;;0.60;99.90;;;;;;5026914;28;20660;-54
2022/01/09 04:36:19;;;;;;;6.37;4.37;;;0.50;99.90;;;;;;5028468;28;20940;-64
2022/01/09 04:38:45;;;;;;;6.27;4.50;;;0.50;99.90;;;;;;5021551;28;20575;-65
2022/01/09 04:41:10;;;;;;;7.10;5.20;;;0.50;99.90;;;;;;5031348;28;20547;-64
2022/01/09 04:43:36;;;;;;;6.70;4.90;;;0.40;99.90;;;;;;5033758;28;20214;-64
2022/01/09 04:46:01;;;;;;;7.17;4.50;;;0.40;99.90;;;;;;5043213;28;20175;-64
2022/01/09 04:48:27;;;;;;;5.13;4.40;;;0.40;99.90;;;;;;5030720;28;20179;-63
2022/01/09 04:50:53;;;;;;;7.23;5.03;;;0.40;99.90;;;;;;5052582;28;20226;-63
2022/01/09 04:53:19;;;;;;;7.38;5.13;;;0.30;99.90;;;;;;5037394;28;20901;-64
2022/01/09 04:55:48;;;;;;;6.57;4.70;;;0.30;99.90;;;;;;5032187;28;20179;-63
2022/01/09 04:58:14;;;;;;;7.90;5.28;;;0.30;99.90;;;;;;5031954;28;20451;-65
2022/01/09 05:00:40;;;;;;;6.50;5.17;;;0.30;99.90;;;;;;5032598;28;20187;-65
2022/01/09 05:03:06;;;;;;;9.02;5.85;;;0.30;99.90;;;;;;5031749;28;20205;-64
2022/01/09 05:05:33;;;;;;;8.63;5.72;;;0.30;99.90;;;;;;5031863;28;20521;-65
2022/01/09 05:07:59;;;;;;;7.40;5.57;;;0.30;99.90;;;;;;5029095;28;20657;-64
2022/01/09 05:10:25;;;;;;;7.68;5.28;;;0.30;99.90;;;;;;5032393;28;20183;-64
2022/01/09 05:12:51;;;;;;;9.52;6.07;;;0.40;99.90;;;;;;5031656;28;20918;-64
2022/01/09 05:15:19;;;;;;;8.40;6.00;;;0.40;99.90;;;;;;5031555;28;20531;-65
2022/01/09 05:17:44;;;;;;;9.00;5.38;;;0.30;99.90;;;;;;5031507;28;20179;-54
2022/01/09 05:20:10;;;;;;;6.43;5.07;;;0.40;99.90;;;;;;5031586;28;20187;-64
2022/01/09 05:22:36;;;;;;;9.25;5.20;;;0.40;99.90;;;;;;5032093;28;20280;-65
2022/01/09 05:25:02;;;;;;;8.07;5.77;;;0.40;99.90;;;;;;5031282;28;20183;-64
2022/01/09 05:27:29;;;;;;;9.13;5.60;;;0.50;99.90;;;;;;5032447;28;20246;-65
2022/01/09 05:29:55;;;;;;;8.80;5.63;;;0.50;99.90;;;;;;5031218;28;20274;-64
2022/01/09 05:32:20;;;;;;;9.00;5.40;;;0.50;99.90;;;;;;5031437;28;20293;-65
2022/01/09 05:34:46;;;;;;;6.70;5.13;;;0.50;99.90;;;;;;5031141;28;20268;-65
2022/01/09 05:37:12;;;;;;;7.73;5.27;;;0.50;99.90;;;;;;5030698;28;20546;-64
2022/01/09 05:39:37;;;;;;;10.23;5.67;;;0.50;99.90;;;;;;5031061;28;20425;-64
2022/01/09 05:42:06;;;;;;;7.37;5.50;;;0.60;99.90;;;;;;5032785;28;20241;-64
2022/01/09 05:44:32;;;;;;;9.60;6.25;;;0.60;99.90;;;;;;5044606;28;20210;-64
2022/01/09 05:46:59;;;;;;;6.47;4.97;;;0.60;99.90;;;;;;5037210;28;20339;-65
2022/01/09 05:49:24;;;;;;;8.93;4.97;;;0.70;99.90;;;;;;5051531;28;20229;-64
2022/01/09 05:51:50;;;;;;;11.00;6.03;;;0.70;99.90;;;;;;5042800;28;20665;-65
2022/01/09 05:54:15;;;;;;;8.90;6.57;;;0.70;99.90;;;;;;5031451;28;20598;-64
2022/01/09 05:56:41;;;;;;;6.90;5.43;;;0.70;99.90;;;;;;5027770;28;20233;-64
2022/01/09 05:59:06;;;;;;;10.53;6.47;;;0.70;99.90;;;;;;5044996;28;20256;-64
2022/01/09 06:01:32;;;;;;;8.60;6.50;;;0.70;99.90;;;;;;5028271;28;20233;-64
2022/01/09 06:03:57;;;;;;;7.20;5.93;;;0.70;99.90;;;;;;5031757;28;20164;-63
2022/01/09 06:06:23;;;;;;;8.60;5.80;;;0.70;99.90;;;;;;5031337;28;20175;-64
2022/01/09 06:08:48;;;;;;;8.37;6.87;;;0.70;99.90;;;;;;5032457;28;20237;-64
2022/01/09 06:11:14;;;;;;;7.20;5.37;;;0.70;99.90;;;;;;5035256;28;20183;-64
2022/01/09 06:13:39;;;;;;;9.17;5.73;;;0.70;99.90;;;;;;5028244;28;20190;-64
2022/01/09 06:16:06;;;;;;;8.47;6.07;;;0.80;99.90;;;;;;5042834;28;20205;-63
2022/01/09 06:18:32;;;;;;;10.45;6.50;;;0.70;99.90;;;;;;5029486;28;20664;-64
2022/01/09 06:20:57;;;;;;;10.10;6.43;;;0.80;99.90;;;;;;5030006;28;20216;-64
2022/01/09 06:23:23;;;;;;;10.23;6.23;;;0.80;99.90;;;;;;5031640;28;20471;-63
2022/01/09 06:25:53;;;;;;;7.13;6.10;;;0.80;99.90;;;;;;5049124;28;20185;-62
2022/01/09 06:28:18;;;;;;;9.65;5.88;;;0.80;99.90;;;;;;5036074;28;20478;-64
2022/01/09 06:30:44;;;;;;;10.47;6.87;;;0.80;99.90;;;;;;5050968;28;20948;-65
2022/01/09 06:33:10;;;;;;;10.60;6.30;;;0.90;99.90;;;;;;5031307;28;20499;-61
2022/01/09 06:35:36;;;;;;;8.15;5.93;;;0.90;99.90;;;;;;5030934;28;20191;-64
2022/01/09 06:38:02;;;;;;;9.98;6.28;;;0.90;99.90;;;;;;5029917;28;20668;-64
2022/01/09 06:40:28;;;;;;;9.07;5.75;;;1.00;99.90;;;;;;5030324;28;20180;-64
2022/01/09 06:42:53;;;;;;;7.73;6.00;;;1.00;99.90;;;;;;5029516;28;20912;-63
2022/01/09 06:45:21;;;;;;;8.27;6.57;;;1.00;99.90;;;;;;5029084;28;20584;-64
2022/01/09 06:47:47;;;;;;;8.90;6.43;;;1.00;99.90;;;;;;5029165;28;20175;-65
2022/01/09 06:50:14;;;;;;;11.30;6.63;;;1.00;99.90;;;;;;5030535;28;20233;-64
2022/01/09 06:52:40;;;;;;;6.95;5.63;;;1.00;99.90;;;;;;5029175;28;20803;-64
2022/01/09 06:55:07;;;;;;;7.43;5.22;;;1.00;99.90;;;;;;5032259;28;20190;-64
2022/01/09 06:57:33;;;;;;;6.85;5.40;;;0.90;99.90;;;;;;5034725;28;20191;-65
2022/01/09 06:59:59;;;;;;;9.30;6.57;;;1.00;99.90;;;;;;5028867;28;20199;-64
2022/01/09 07:02:25;;;;;;;9.40;5.80;;;1.00;99.90;;;;;;5039828;28;20689;-65
2022/01/09 07:04:50;;;;;;;8.60;5.90;;;0.90;99.90;;;;;;5036691;28;20194;-65
2022/01/09 07:07:16;;;;;;;7.40;5.43;;;0.90;99.90;;;;;;5032816;28;20252;-64
2022/01/09 07:09:41;;;;;;;8.13;6.20;;;1.00;99.90;;;;;;5030906;28;20194;-64
2022/01/09 07:12:09;;;;;;;7.20;5.43;;;1.00;99.90;;;;;;5030053;28;20198;-65
2022/01/09 07:14:35;;;;;;;7.60;5.35;;;1.10;99.90;;;;;;5037684;28;20193;-65
2022/01/09 07:17:01;;;;;;;9.32;6.15;;;1.10;99.90;;;;;;5029990;28;20187;-65
2022/01/09 07:19:27;;;;;;;7.60;5.85;;;1.10;99.90;;;;;;5029339;28;20641;-65
2022/01/09 07:21:52;;;;;;;8.33;5.80;;;1.10;99.90;;;;;;5025635;28;20256;-64
2022/01/09 07:24:18;;;;;;;9.77;6.00;;;1.10;99.90;;;;;;5028796;28;20734;-65
2022/01/09 07:26:44;;;;;;;8.00;6.20;;;1.20;99.90;;;;;;5026019;28;20767;-64
2022/01/09 07:29:09;;;;;;;9.43;5.80;;;1.20;99.90;;;;;;5031248;28;20179;-65
2022/01/09 07:31:35;;;;;;;8.37;5.97;;;1.20;99.90;;;;;;5035433;28;21062;-63
2022/01/09 07:34:00;;;;;;;7.73;6.27;;;1.10;99.90;;;;;;5036084;28;20191;-64
2022/01/09 07:36:26;;;;;;;8.60;6.57;;;1.10;99.90;;;;;;5033801;28;20175;-63
2022/01/09 07:38:51;;;;;;;7.20;4.93;;;1.20;99.90;;;;;;5026223;28;20194;-64
2022/01/09 07:41:17;;;;;;;7.30;5.33;;;1.30;99.90;;;;;;5041079;28;20178;-64
2022/01/09 07:43:43;;;;;;;10.10;5.70;;;1.30;99.90;;;;;;5045878;28;20209;-64
2022/01/09 07:46:09;;;;;;;6.33;5.30;;;1.30;99.90;;;;;;5045349;28;20179;-65
2022/01/09 07:48:34;;;;;;;6.40;4.85;;;1.30;99.90;;;;;;5034965;28;20189;-65
2022/01/09 07:51:00;;;;;;;7.13;5.00;;;1.40;99.90;;;;;;5028873;28;20223;-65
2022/01/09 07:53:25;;;;;;;7.53;5.37;;;1.40;99.90;;;;;;5027365;28;20590;-65
2022/01/09 07:55:52;;;;;;;6.13;5.30;;;1.50;99.90;;;;;;5029680;28;20173;-65
2022/01/09 07:58:18;;;;;;;7.18;5.35;;;1.50;99.90;;;;;;5023097;28;20654;-63
2022/01/09 08:00:43;;;;;;;5.50;4.63;;;1.60;99.90;;;;;;5026909;28;20179;-57
2022/01/09 08:03:13;;;;;;;6.80;5.00;;;1.50;99.90;;;;;;5018006;28;20257;-64
2022/01/09 08:05:39;;;;;;;7.10;5.20;;;1.50;99.90;;;;;;5029292;28;20270;-65
2022/01/09 08:08:06;;;;;;;6.13;4.55;;;1.60;99.90;;;;;;5026050;28;20199;-65
2022/01/09 08:10:31;;;;;;;5.53;4.38;;;1.70;99.90;;;;;;5024708;28;20179;-65
2022/01/09 08:12:57;;;;;;;6.33;4.80;;;1.70;99.90;;;;;;5030264;28;20194;-64
2022/01/09 08:15:23;;;;;;;5.43;4.10;;;1.80;99.90;;;;;;5022153;28;20191;-64
2022/01/09 08:17:49;;;;;;;5.13;4.23;;;1.90;99.90;;;;;;5028505;28;20265;-64
2022/01/09 08:20:16;;;;;;;5.75;4.70;;;1.90;99.90;;;;;;5017091;28;20993;-64
2022/01/09 08:22:42;;;;;;;5.60;4.63;;;2.00;99.90;;;;;;5032000;28;20209;-64
2022/01/09 08:25:12;;;;;;;5.32;4.68;;;1.90;99.90;;;;;;5027332;28;20183;-64
2022/01/09 08:27:38;;;;;;;5.55;4.50;;;1.90;99.90;;;;;;5024316;28;20182;-64
2022/01/09 08:30:06;;;;;;;4.78;4.28;;;1.90;99.90;;;;;;5031152;28;20533;-64
2022/01/09 08:32:31;;;;;;;5.18;4.40;;;1.90;99.90;;;;;;5019524;28;21026;-63
2022/01/09 08:34:57;;;;;;;6.40;4.77;;;2.00;99.90;;;;;;5012131;28;20197;-66
2022/01/09 08:37:22;;;;;;;4.83;4.20;;;2.00;99.90;;;;;;5029075;28;20190;-66
2022/01/09 08:39:48;;;;;;;5.50;4.57;;;2.00;99.90;;;;;;5022151;28;20187;-64
2022/01/09 08:42:14;;;;;;;5.30;4.30;;;2.10;99.90;;;;;;5029112;28;20308;-64
2022/01/09 08:44:39;;;;;;;4.63;4.10;;;2.10;99.90;;;;;;5022065;28;20183;-63
2022/01/09 08:47:06;;;;;;;5.90;4.57;;;2.10;99.90;;;;;;5031019;28;20190;-62
2022/01/09 08:49:32;;;;;;;4.80;4.35;;;2.20;99.90;;;;;;5041469;28;20538;-64
2022/01/09 08:51:57;;;;;;;6.93;4.43;;;2.20;99.90;;;;;;5024356;28;20214;-63
2022/01/09 08:54:24;;;;;;;5.50;4.40;;;2.30;99.90;;;;;;5030914;28;20186;-57
2022/01/09 08:56:49;;;;;;;6.95;4.38;;;2.40;99.90;;;;;;5034376;28;20189;-63
2022/01/09 08:59:15;;;;;;;5.20;4.47;;;2.50;99.90;;;;;;5031015;28;20190;-63
2022/01/09 09:01:40;;;;;;;5.30;4.20;;;2.50;99.90;;;;;;5025281;28;20197;-63
2022/01/09 09:04:06;;;;;;;6.17;4.77;;;2.70;99.90;;;;;;5029429;28;20934;-64
2022/01/09 09:06:32;;;;;;;5.20;4.40;;;2.80;99.90;;;;;;5034182;28;20170;-64
2022/01/09 09:08:57;;;;;;;7.13;5.37;;;3.00;99.90;;;;;;5027311;28;20244;-63
2022/01/09 09:11:23;;;;;;;4.73;4.33;;;3.00;99.90;;;;;;5015834;28;20270;-66
2022/01/09 09:13:48;;;;;;;5.37;4.43;;;2.90;99.90;;;;;;5026231;28;20183;-68
2022/01/09 09:16:16;;;;;;;6.70;5.07;;;3.00;99.90;;;;;;5027742;28;20654;-63
2022/01/09 09:18:43;;;;;;;4.45;3.97;;;3.10;99.90;;;;;;5024343;28;20652;-63
2022/01/09 09:21:09;;;;;;;5.80;5.18;;;3.00;99.90;;;;;;5024714;28;20210;-65
2022/01/09 09:23:35;;;;;;;6.07;4.97;;;3.00;99.90;;;;;;5025679;28;20210;-63
2022/01/09 09:26:00;;;;;;;5.17;4.67;;;3.10;99.90;;;;;;5020097;28;20204;-65
2022/01/09 09:28:26;;;;;;;6.20;5.03;;;3.30;99.90;;;;;;5020644;28;20199;-65
2022/01/09 09:30:51;;;;;;;7.13;5.10;;;3.40;99.90;;;;;;5012920;28;20530;-65
2022/01/09 09:33:17;;;;;;;6.13;4.50;;;3.60;99.90;;;;;;5027796;28;20184;-66
2022/01/09 09:35:42;;;;;;;4.93;4.43;;;3.70;99.90;;;;;;5036431;28;20182;-65
2022/01/09 09:38:08;;;;;;;5.90;4.73;;;3.70;99.90;;;;;;5031974;28;20217;-69
2022/01/09 09:40:33;;;;;;;5.40;4.60;;;3.70;99.90;;;;;;5035311;28;20217;-65
2022/01/09 09:42:59;;;;;;;6.07;5.20;;;3.50;99.90;;;;;;5031251;28;20211;-66
2022/01/09 09:45:25;;;;;;;6.03;5.00;;;3.50;99.90;;;;;;5040105;28;20170;-66
2022/01/09 09:47:52;;;;;;;5.90;4.97;;;3.50;99.90;;;;;;5034290;28;20175;-66
2022/01/09 09:50:19;;;;;;;7.03;5.05;;;3.40;99.90;;;;;;5033279;28;20230;-66
2022/01/09 09:52:47;;;;;;;5.80;5.15;;;3.40;99.90;;;;;;5042441;28;20201;-65
2022/01/09 09:55:14;;;;;;;5.80;4.68;;;3.30;99.90;;;;;;5049872;28;20191;-65
2022/01/09 09:57:40;;;;;;;5.55;4.95;;;3.40;99.90;;;;;;5047994;28;20194;-65
2022/01/09 10:00:15;;;;;;;5.50;5.00;;;3.20;99.90;;;;;;5046378;28;20195;-67
2022/01/09 10:02:49;;;;;;;6.70;4.97;;;3.30;99.90;;;;;;5038648;28;20853;-67
2022/01/09 10:05:21;;;;;;;6.85;5.45;;;3.50;99.90;;;;;;5029329;28;20599;-67
2022/01/09 10:07:47;;;;;;;5.25;4.32;;;3.50;99.90;;;;;;5033517;28;20174;-67
2022/01/09 10:10:18;;;;;;;5.22;4.38;;;3.40;99.90;;;;;;5047806;28;20182;-65
2022/01/09 10:12:45;;;;;;;5.35;4.80;;;3.60;99.90;;;;;;5039197;28;20219;-60
2022/01/09 10:15:17;;;;;;;6.20;5.40;;;3.60;99.90;;;;;;5038210;28;20276;-65
2022/01/09 10:17:48;;;;;;;5.13;4.15;;;3.80;99.90;;;;;;5040790;28;20857;-63
2022/01/09 10:20:23;;;;;;;5.32;4.70;;;3.80;99.90;;;;;;5027511;28;20221;-65
2022/01/09 10:22:51;;;;;;;7.25;4.85;;;3.80;99.90;;;;;;5029034;28;20572;-63
2022/01/09 10:25:16;;;;;;;6.05;4.95;;;3.90;99.90;;;;;;5043550;28;20264;-66
2022/01/09 10:27:42;;;;;;;5.20;4.70;;;4.10;99.90;;;;;;5040102;28;20175;-59
2022/01/09 10:30:08;;;;;;;5.50;4.93;;;4.30;99.90;;;;;;5041199;28;20186;-63
2022/01/09 10:32:34;;;;;;;5.03;4.47;;;4.10;99.90;;;;;;5039956;28;20261;-65
2022/01/09 10:35:19;;;;;;;5.17;4.67;;;4.10;99.90;;;;;;5036585;28;20445;-63
2022/01/09 10:38:01;;;;;;;4.82;4.35;;;3.90;99.90;;;;;;5015850;28;20564;-62
2022/01/09 10:40:29;;;;;;;5.70;4.82;;;3.90;99.90;;;;;;5028013;28;20249;-63
2022/01/09 10:43:14;;;;;;;6.82;4.93;;;3.90;99.90;;;;;;5036001;28;20287;-65
2022/01/09 10:45:43;;;;;;;6.20;5.07;;;3.90;99.90;;;;;;5032569;28;20615;-65
2022/01/09 10:48:10;;;;;;;6.07;4.65;;;3.90;99.90;;;;;;5041086;28;20186;-64
2022/01/09 10:50:40;;;;;;;5.95;4.45;;;3.90;99.90;;;;;;5030183;28;20363;-60
2022/01/09 10:53:14;;;;;;;5.88;4.80;;;4.00;99.90;;;;;;5047932;28;20254;-61
2022/01/09 10:55:40;;;;;;;5.00;4.50;;;4.10;99.90;;;;;;5041347;28;20188;-61
2022/01/09 10:58:21;;;;;;;5.73;4.60;;;4.10;99.90;;;;;;5039702;28;20548;-61
2022/01/09 11:00:47;;;;;;;6.00;4.70;;;4.30;99.90;;;;;;5033899;28;20186;-61
2022/01/09 11:03:13;;;;;;;5.60;5.10;;;4.50;99.90;;;;;;5022228;28;20583;-66
2022/01/09 11:05:39;;;;;;;5.10;4.40;;;4.80;99.90;;;;;;5028174;28;20274;-66
2022/01/09 11:08:06;;;;;;;5.63;5.10;;;4.90;99.90;;;;;;5028945;28;20270;-66
2022/01/09 11:10:33;;;;;;;4.68;4.28;;;5.00;99.90;;;;;;5027631;28;20241;-66
2022/01/09 11:13:01;;;;;;;5.72;5.22;;;5.20;99.90;;;;;;5032755;28;20191;-66
2022/01/09 11:15:29;;;;;;;5.30;4.80;;;5.30;99.90;;;;;;5034526;28;20183;-65
2022/01/09 11:17:58;;;;;;;5.97;5.20;;;5.30;99.90;;;;;;5046100;28;20572;-66
2022/01/09 11:20:24;;;;;;;6.18;5.57;;;5.40;99.90;;;;;;5024588;28;20241;-57
2022/01/09 11:22:53;;;;;;;5.53;4.93;;;5.50;99.90;;;;;;5042656;28;20202;-66
2022/01/09 11:25:42;;;;;;;5.50;5.10;;;6.10;99.90;;;;;;5027590;28;20171;-60
2022/01/09 11:28:27;;;;;;;6.30;5.33;;;6.80;99.90;;;;;;5029703;28;20187;-66
2022/01/09 11:30:58;;;;;;;5.40;4.90;;;7.40;99.20;;;;;;5032067;28;20520;-66
2022/01/09 11:33:33;;;;;;;5.93;5.43;;;8.10;96.60;;;;;;5029222;28;21187;-66
2022/01/09 11:36:10;;;;;;;5.73;5.23;;;8.90;94.70;;;;;;5027176;28;20434;-66
2022/01/09 11:38:48;;;;;;;6.13;5.53;;;9.30;92.20;;;;;;5027768;28;20409;-65
2022/01/09 11:41:14;;;;;;;6.10;5.60;;;9.30;91.30;;;;;;5025613;28;20434;-66
2022/01/09 11:43:58;;;;;;;6.27;5.77;;;9.00;91.40;;;;;;5035582;28;20518;-66
2022/01/09 11:46:25;;;;;;;7.00;6.40;;;8.40;91.80;;;;;;5032670;28;20437;-66
2022/01/09 11:48:50;;;;;;;6.80;5.93;;;7.70;93.30;;;;;;5042299;28;20436;-66
2022/01/09 11:51:17;;;;;;;6.70;6.10;;;7.30;94.60;;;;;;5029730;28;20445;-66
2022/01/09 11:54:03;;;;;;;5.80;5.30;;;6.90;95.80;;;;;;5048660;28;20185;-66
2022/01/09 11:56:52;;;;;;;7.03;6.33;;;6.60;97.30;;;;;;5023297;28;20426;-66
2022/01/09 11:59:48;;;;;;;6.57;5.97;;;6.20;98.60;;;;;;5032510;28;20807;-66
2022/01/09 12:02:16;;;;;;;6.95;6.10;;;5.80;99.90;;;;;;5023981;28;20564;-65
2022/01/09 12:04:42;;;;;;;6.88;5.72;;;5.50;99.90;;;;;;5022612;28;20264;-63
2022/01/09 12:07:11;;;;;;;6.80;6.10;;;5.40;99.90;;;;;;5021430;28;20180;-64
2022/01/09 12:09:45;;;;;;;6.05;5.45;;;5.20;99.90;;;;;;5018147;28;20197;-61
2022/01/09 12:12:16;;;;;;;7.10;6.40;;;5.00;99.90;;;;;;5016097;28;20260;-63
2022/01/09 12:14:41;;;;;;;6.82;6.20;;;4.90;99.90;;;;;;5024965;28;20229;-64
2022/01/09 12:17:27;;;;;;;6.73;5.90;;;4.90;99.90;;;;;;5025780;28;20188;-65
2022/01/09 12:20:07;;;;;;;7.65;5.65;;;4.90;99.90;;;;;;5015838;28;20685;-63
2022/01/09 12:25:25;;;;;;;9.45;6.75;;;4.80;99.90;;;;;;5010704;28;20250;-65
2022/01/09 12:27:54;;;;;;;7.80;6.00;;;4.80;99.90;;;;;;5038056;28;20202;-65
2022/01/09 12:30:41;;;;;;;7.70;6.03;;;4.80;99.90;;;;;;5011521;28;20241;-65
2022/01/09 12:33:22;;;;;;;8.50;6.88;;;4.80;99.90;;;;;;5018662;28;20178;-67
2022/01/09 12:36:11;;;;;;;7.55;6.35;;;4.80;99.90;;;;;;5021591;28;20645;-65
2022/01/09 12:38:48;;;;;;;8.68;6.70;;;4.70;99.90;;;;;;5026932;28;20179;-67
2022/01/09 12:41:21;;;;;;;8.15;7.10;;;4.70;99.90;;;;;;5024356;28;20179;-66
2022/01/09 12:43:47;;;;;;;7.03;6.32;;;4.60;99.90;;;;;;5035155;28;20242;-60
2022/01/09 12:46:17;;;;;;;7.60;6.20;;;4.50;99.90;;;;;;5046233;28;20182;-67
2022/01/09 12:48:57;;;;;;;7.82;6.47;;;4.50;99.90;;;;;;5028414;28;20345;-67
2022/01/09 12:51:24;;;;;;;7.20;6.40;;;4.50;99.90;;;;;;5016598;28;20270;-63
2022/01/09 12:53:55;;;;;;;8.05;6.53;;;4.50;99.90;;;;;;5027762;28;20183;-66
2022/01/09 12:56:32;;;;;;;7.55;6.70;;;4.50;99.90;;;;;;5047619;28;20226;-66
2022/01/09 12:59:00;;;;;;;9.45;7.35;;;4.50;99.90;;;;;;5047888;28;20185;-67
2022/01/09 13:01:31;;;;;;;8.93;6.53;;;4.50;99.90;;;;;;5026789;28;20217;-67